createdAt,value
2018-07-16T00:00:41.618Z,69.24
2018-07-16T00:03:11.531Z,70.51
2018-07-16T00:05:46.894Z,71.05
2018-07-16T00:08:16.332Z,71.42
2018-07-16T00:10:45.414Z,71.12
2018-07-16T00:13:14.486Z,71.57
2018-07-16T00:15:43.590Z,71.37
2018-07-16T00:18:12.649Z,72.58
2018-07-16T00:20:41.734Z,72.71
2018-07-16T00:23:10.846Z,72.58
2018-07-16T00:25:39.923Z,72.59
2018-07-16T00:28:09.012Z,72.24
2018-07-16T00:30:38.961Z,72.38
2018-07-16T00:33:08.787Z,73.13
2018-07-16T00:35:38.155Z,73.35
2018-07-16T00:38:07.279Z,73.55
2018-07-16T00:40:36.398Z,74.12
2018-07-16T00:43:06.090Z,74.26
2018-07-16T00:45:35.198Z,74.98
2018-07-16T00:48:04.307Z,74.69
2018-07-16T00:50:33.427Z,75.29
2018-07-16T00:53:02.530Z,75.76
2018-07-16T00:55:31.666Z,76.55
2018-07-16T00:58:00.772Z,76.76
2018-07-16T01:00:29.850Z,79.31
2018-07-16T01:02:58.974Z,81.16
2018-07-16T01:05:28.166Z,80.27
2018-07-16T01:07:57.264Z,80.47
2018-07-16T01:10:26.362Z,80.39
2018-07-16T01:12:55.446Z,82.71
2018-07-16T01:15:24.554Z,82.53
2018-07-16T01:17:53.715Z,84.62
2018-07-16T01:20:22.850Z,85.42
2018-07-16T01:22:52.659Z,85.90
2018-07-16T01:25:21.815Z,85.86
2018-07-16T01:27:51.623Z,84.44
2018-07-16T01:30:20.714Z,87.56
2018-07-16T01:32:49.875Z,87.35
2018-07-16T01:35:19.706Z,88.22
2018-07-16T01:37:48.786Z,86.92
2018-07-16T01:40:17.918Z,87.21
2018-07-16T01:42:47.030Z,86.76
2018-07-16T01:45:16.093Z,86.45
2018-07-16T01:47:45.214Z,86.31
2018-07-16T01:50:14.283Z,86.10
2018-07-16T01:52:43.382Z,85.68
2018-07-16T01:55:12.490Z,84.30
2018-07-16T01:57:41.590Z,84.57
2018-07-16T02:00:13.026Z,83.14
2018-07-16T02:02:43.659Z,83.94
2018-07-16T02:05:15.470Z,85.37
2018-07-16T02:07:45.239Z,85.96
2018-07-16T02:10:17.398Z,85.92
2018-07-16T02:12:47.696Z,85.49
2018-07-16T02:15:19.260Z,86.33
2018-07-16T02:17:50.827Z,86.11
2018-07-16T02:20:20.728Z,85.32
2018-07-16T02:22:50.987Z,85.55
2018-07-16T02:25:20.090Z,85.43
2018-07-16T02:27:49.170Z,85.42
2018-07-16T02:30:18.275Z,85.66
2018-07-16T02:32:47.919Z,86.69
2018-07-16T02:35:16.719Z,86.04
2018-07-16T02:37:45.963Z,86.62
2018-07-16T02:40:15.316Z,86.99
2018-07-16T02:42:44.440Z,87.08
2018-07-16T02:45:13.503Z,87.48
2018-07-16T02:47:42.580Z,86.71
2018-07-16T02:50:11.819Z,86.16
2018-07-16T02:52:41.326Z,85.70
2018-07-16T02:55:10.647Z,84.56
2018-07-16T02:57:39.815Z,84.60
2018-07-16T03:00:09.891Z,83.85
2018-07-16T03:02:39.886Z,82.54
2018-07-16T03:05:14.739Z,81.58
2018-07-16T03:07:44.216Z,81.80
2018-07-16T03:10:13.463Z,81.93
2018-07-16T03:12:43.673Z,81.54
2018-07-16T03:15:13.545Z,81.27
2018-07-16T03:17:42.670Z,81.60
2018-07-16T03:20:11.728Z,82.09
2018-07-16T03:22:40.841Z,82.15
2018-07-16T03:25:09.975Z,83.12
2018-07-16T03:27:39.056Z,82.84
2018-07-16T03:30:08.183Z,83.13
2018-07-16T03:32:37.242Z,83.63
2018-07-16T03:35:06.298Z,84.45
2018-07-16T03:37:35.438Z,84.79
2018-07-16T03:40:04.972Z,84.26
2018-07-16T03:42:34.091Z,84.91
2018-07-16T03:45:03.443Z,85.00
2018-07-16T03:47:32.650Z,84.81
2018-07-16T03:50:01.780Z,83.64
2018-07-16T03:52:31.350Z,84.07
2018-07-16T03:55:01.369Z,84.12
2018-07-16T03:57:30.706Z,84.31
2018-07-16T04:00:00.275Z,83.87
2018-07-16T04:02:29.475Z,84.84
2018-07-16T04:04:59.307Z,84.77
2018-07-16T04:07:29.034Z,85.33
2018-07-16T04:09:59.086Z,85.26
2018-07-16T04:12:28.570Z,84.96
2018-07-16T04:14:57.673Z,84.51
2018-07-16T04:17:26.794Z,84.29
2018-07-16T04:19:55.962Z,83.17
2018-07-16T04:22:25.159Z,82.83
2018-07-16T04:24:54.415Z,83.35
2018-07-16T04:27:23.554Z,83.36
2018-07-16T04:29:52.626Z,84.00
2018-07-16T04:32:21.711Z,84.36
2018-07-16T04:34:51.800Z,84.24
2018-07-16T04:37:21.571Z,84.29
2018-07-16T04:39:51.595Z,83.69
2018-07-16T04:42:21.045Z,83.80
2018-07-16T04:44:50.143Z,83.46
2018-07-16T04:47:19.223Z,83.57
2018-07-16T04:49:48.338Z,82.71
2018-07-16T04:52:17.399Z,82.64
2018-07-16T04:54:46.475Z,82.68
2018-07-16T04:57:16.303Z,82.05
2018-07-16T04:59:45.394Z,81.39
2018-07-16T05:02:14.627Z,80.72
2018-07-16T05:04:43.944Z,79.58
2018-07-16T05:07:13.378Z,75.51
2018-07-16T05:09:42.565Z,71.25
2018-07-16T05:12:11.655Z,71.05
2018-07-16T05:14:40.775Z,70.20
2018-07-16T05:17:09.847Z,69.61
2018-07-16T05:19:38.957Z,69.74
2018-07-16T05:22:08.079Z,69.91
2018-07-16T05:24:37.181Z,68.20
2018-07-16T05:27:06.496Z,65.03
2018-07-16T05:29:35.594Z,61.17
2018-07-16T05:32:04.740Z,58.08
2018-07-16T05:34:34.287Z,59.02
2018-07-16T05:37:03.698Z,59.31
2018-07-16T05:39:32.821Z,60.37
2018-07-16T05:42:01.995Z,60.60
2018-07-16T05:44:31.115Z,60.41
2018-07-16T05:47:00.547Z,60.52
2018-07-16T05:49:29.639Z,60.89
2018-07-16T05:51:58.776Z,58.18
2018-07-16T05:54:27.870Z,53.64
2018-07-16T05:56:56.963Z,52.24
2018-07-16T05:59:26.055Z,54.98
2018-07-16T06:01:55.123Z,57.72
2018-07-16T06:04:24.234Z,57.62
2018-07-16T06:06:53.343Z,57.95
2018-07-16T06:09:22.398Z,59.07
2018-07-16T06:11:51.663Z,60.90
2018-07-16T06:14:20.741Z,60.71
2018-07-16T06:16:49.844Z,60.40
2018-07-16T06:19:18.911Z,59.28
2018-07-16T06:21:47.992Z,57.43
2018-07-16T06:24:17.058Z,55.23
2018-07-16T06:26:46.168Z,54.99
2018-07-16T06:29:15.239Z,54.56
2018-07-16T06:31:44.296Z,55.00
2018-07-16T06:34:13.403Z,54.83
2018-07-16T06:36:43.191Z,54.73
2018-07-16T06:39:12.315Z,54.85
2018-07-16T06:41:41.475Z,52.51
2018-07-16T06:44:10.687Z,51.36
2018-07-16T06:46:39.750Z,51.65
2018-07-16T06:49:08.842Z,52.59
2018-07-16T06:51:37.939Z,53.62
2018-07-16T06:54:07.667Z,54.29
2018-07-16T06:56:36.939Z,56.25
2018-07-16T06:59:06.070Z,57.22
2018-07-16T07:01:35.187Z,58.61
2018-07-16T07:04:04.259Z,57.42
2018-07-16T07:06:33.319Z,57.33
2018-07-16T07:09:02.414Z,56.40
2018-07-16T07:11:31.535Z,56.33
2018-07-16T07:14:00.643Z,55.95
2018-07-16T07:16:29.711Z,56.26
2018-07-16T07:18:58.776Z,55.88
2018-07-16T07:21:27.557Z,56.83
2018-07-16T07:23:56.891Z,55.19
2018-07-16T07:26:25.623Z,53.63
2018-07-16T07:28:54.737Z,53.82
2018-07-16T07:31:23.823Z,52.22
2018-07-16T07:33:52.927Z,51.27
2018-07-16T07:36:22.004Z,51.29
2018-07-16T07:38:51.243Z,50.63
2018-07-16T07:41:20.687Z,50.10
2018-07-16T07:43:50.246Z,49.37
2018-07-16T07:46:18.935Z,48.40
2018-07-16T07:48:48.055Z,48.64
2018-07-16T07:51:17.190Z,47.93
2018-07-16T07:53:46.091Z,46.76
2018-07-16T07:56:15.230Z,47.10
2018-07-16T07:58:44.311Z,46.78
2018-07-16T08:01:13.418Z,46.55
2018-07-16T08:03:42.495Z,45.38
2018-07-16T08:06:11.550Z,42.78
2018-07-16T08:08:40.637Z,42.73
2018-07-16T08:11:09.742Z,42.31
2018-07-16T08:13:38.852Z,42.68
2018-07-16T08:16:07.935Z,45.47
2018-07-16T08:18:37.016Z,41.83
2018-07-16T08:21:06.191Z,41.21
2018-07-16T08:23:35.238Z,39.19
2018-07-16T08:26:04.302Z,38.91
2018-07-16T08:28:33.413Z,41.13
2018-07-16T08:31:02.718Z,40.44
2018-07-16T08:33:32.097Z,40.32
2018-07-16T08:36:01.127Z,38.73
2018-07-16T08:38:29.742Z,38.77
2018-07-16T08:40:58.463Z,40.31
2018-07-16T08:43:27.669Z,36.04
2018-07-16T08:45:56.714Z,38.01
2018-07-16T08:48:25.862Z,37.45
2018-07-16T08:50:55.363Z,40.59
2018-07-16T08:53:24.442Z,38.23
2018-07-16T08:55:53.507Z,37.79
2018-07-16T08:58:22.754Z,37.60
2018-07-16T09:00:53.687Z,39.56
2018-07-16T09:03:22.930Z,36.20
2018-07-16T09:05:57.263Z,36.44
2018-07-16T09:08:26.395Z,36.25
2018-07-16T09:10:55.554Z,37.33
2018-07-16T09:13:24.684Z,36.82
2018-07-16T09:15:53.775Z,35.88
2018-07-16T09:18:22.975Z,33.27
2018-07-16T09:20:52.003Z,30.98
2018-07-16T09:23:22.594Z,31.01
2018-07-16T09:25:51.651Z,30.26
2018-07-16T09:28:20.741Z,30.37
2018-07-16T09:30:49.827Z,30.72
2018-07-16T09:33:18.948Z,29.94
2018-07-16T09:35:48.009Z,31.37
2018-07-16T09:38:17.067Z,33.84
2018-07-16T09:40:46.378Z,31.89
2018-07-16T09:43:15.607Z,28.49
2018-07-16T09:45:45.531Z,25.01
2018-07-16T09:48:14.238Z,26.42
2018-07-16T09:50:43.328Z,27.23
2018-07-16T09:53:12.464Z,25.94
2018-07-16T09:55:41.566Z,29.18
2018-07-16T09:58:10.902Z,29.28
2018-07-16T10:00:44.964Z,28.21
2018-07-16T10:03:14.051Z,26.37
2018-07-16T10:05:43.174Z,28.42
2018-07-16T10:08:12.288Z,30.51
2018-07-16T10:10:41.363Z,33.92
2018-07-16T10:13:10.430Z,34.23
2018-07-16T10:15:39.563Z,34.76
2018-07-16T10:18:08.626Z,31.30
2018-07-16T10:20:37.746Z,25.22
2018-07-16T10:23:06.766Z,21.81
2018-07-16T10:25:35.837Z,22.38
2018-07-16T10:28:04.911Z,24.43
2018-07-16T10:30:34.054Z,31.87
2018-07-16T10:33:03.285Z,27.38
2018-07-16T10:35:32.379Z,30.00
2018-07-16T10:38:01.457Z,32.68
2018-07-16T10:40:30.270Z,30.99
2018-07-16T10:43:00.528Z,31.91
2018-07-16T10:45:29.605Z,30.45
2018-07-16T10:47:58.720Z,31.99
2018-07-16T10:50:27.811Z,35.71
2018-07-16T10:52:56.935Z,38.29
2018-07-16T10:55:26.207Z,40.35
2018-07-16T10:57:55.725Z,41.07
2018-07-16T11:00:25.038Z,41.83
2018-07-16T11:02:54.151Z,42.17
2018-07-16T11:05:23.271Z,42.28
2018-07-16T11:07:52.298Z,42.22
2018-07-16T11:10:21.358Z,42.18
2018-07-16T11:12:50.470Z,34.85
2018-07-16T11:15:19.578Z,29.27
2018-07-16T11:17:48.662Z,26.08
2018-07-16T11:20:17.840Z,28.05
2018-07-16T11:22:46.948Z,26.37
2018-07-16T11:25:16.015Z,26.90
2018-07-16T11:27:45.082Z,26.22
2018-07-16T11:30:14.171Z,23.13
2018-07-16T11:32:43.230Z,21.33
2018-07-16T11:35:12.317Z,22.32
2018-07-16T11:37:41.948Z,21.84
2018-07-16T11:40:11.059Z,21.09
2018-07-16T11:42:40.350Z,17.98
2018-07-16T11:45:09.463Z,17.48
2018-07-16T11:47:38.523Z,21.10
2018-07-16T11:50:07.588Z,20.02
2018-07-16T11:52:36.694Z,17.36
2018-07-16T11:55:05.779Z,17.45
2018-07-16T11:57:34.852Z,24.20
2018-07-16T12:00:04.014Z,26.35
2018-07-16T12:02:33.078Z,25.73
2018-07-16T12:05:02.343Z,28.49
2018-07-16T12:07:32.131Z,27.90
2018-07-16T12:10:01.178Z,26.34
2018-07-16T12:12:30.263Z,22.34
2018-07-16T12:14:59.346Z,24.63
2018-07-16T12:17:28.419Z,22.48
2018-07-16T12:19:57.503Z,25.61
2018-07-16T12:22:26.944Z,24.07
2018-07-16T12:24:55.968Z,21.59
2018-07-16T12:27:25.131Z,20.27
2018-07-16T12:29:54.263Z,21.14
2018-07-16T12:32:23.318Z,21.62
2018-07-16T12:34:52.786Z,20.04
2018-07-16T12:37:21.878Z,17.63
2018-07-16T12:39:50.946Z,20.05
2018-07-16T12:42:21.943Z,18.64
2018-07-16T12:44:51.217Z,21.35
2018-07-16T12:47:20.278Z,18.45
2018-07-16T12:49:49.411Z,19.80
2018-07-16T12:52:18.482Z,19.40
2018-07-16T12:54:47.555Z,17.42
2018-07-16T12:57:16.715Z,17.59
2018-07-16T12:59:45.801Z,17.87
2018-07-16T13:02:15.279Z,17.20
2018-07-16T13:04:44.386Z,15.58
2018-07-16T13:07:13.527Z,16.07
2018-07-16T13:09:42.494Z,19.06
2018-07-16T13:12:11.603Z,21.92
2018-07-16T13:14:40.679Z,22.14
2018-07-16T13:17:09.789Z,23.46
2018-07-16T13:19:38.878Z,24.96
2018-07-16T13:22:08.106Z,24.92
2018-07-16T13:24:37.590Z,30.23
2018-07-16T13:27:06.730Z,28.01
2018-07-16T13:29:35.818Z,24.71
2018-07-16T13:32:04.895Z,27.38
2018-07-16T13:34:33.983Z,25.39
2018-07-16T13:37:03.076Z,25.64
2018-07-16T13:39:32.214Z,25.99
2018-07-16T13:42:01.299Z,22.47
2018-07-16T13:44:31.386Z,20.93
2018-07-16T13:47:00.452Z,22.98
2018-07-16T13:49:29.568Z,25.55
2018-07-16T13:51:58.679Z,26.07
2018-07-16T13:54:27.730Z,25.15
2018-07-16T13:56:56.846Z,23.65
2018-07-16T13:59:25.878Z,25.52
2018-07-16T14:01:55.979Z,26.47
2018-07-16T14:04:25.203Z,27.66
2018-07-16T14:06:53.903Z,25.86
2018-07-16T14:09:22.954Z,24.65
2018-07-16T14:11:52.310Z,23.29
2018-07-16T14:14:21.634Z,22.85
2018-07-16T14:16:50.730Z,20.61
2018-07-16T14:19:19.847Z,19.61
2018-07-16T14:21:48.951Z,24.09
2018-07-16T14:24:18.100Z,25.49
2018-07-16T14:26:47.161Z,24.36
2018-07-16T14:29:16.231Z,21.57
2018-07-16T14:31:45.334Z,21.26
2018-07-16T14:34:14.466Z,19.85
2018-07-16T14:36:43.766Z,20.32
2018-07-16T14:39:12.907Z,18.24
2018-07-16T14:41:41.946Z,18.37
2018-07-16T14:44:10.950Z,18.03
2018-07-16T14:46:39.758Z,18.60
2018-07-16T14:49:08.816Z,19.35
2018-07-16T14:51:37.891Z,21.53
2018-07-16T14:54:06.949Z,20.22
2018-07-16T14:56:36.026Z,20.83
2018-07-16T14:59:05.175Z,25.89
2018-07-16T15:01:34.290Z,25.03
2018-07-16T15:04:03.370Z,25.52
2018-07-16T15:06:32.431Z,27.41
2018-07-16T15:09:01.522Z,26.81
2018-07-16T15:11:30.643Z,29.25
2018-07-16T15:13:59.810Z,30.25
2018-07-16T15:16:28.830Z,25.54
2018-07-16T15:18:57.904Z,24.94
2018-07-16T15:21:27.283Z,23.86
2018-07-16T15:23:56.146Z,25.82
2018-07-16T15:26:25.250Z,26.12
2018-07-16T15:28:54.315Z,24.17
2018-07-16T15:31:23.406Z,23.04
2018-07-16T15:33:52.594Z,21.63
2018-07-16T15:36:21.715Z,23.87
2018-07-16T15:38:51.014Z,23.03
2018-07-16T15:41:20.138Z,23.79
2018-07-16T15:43:48.902Z,24.39
2018-07-16T15:46:18.003Z,23.56
2018-07-16T15:48:47.306Z,21.08
2018-07-16T15:51:16.622Z,21.07
2018-07-16T15:53:46.013Z,22.69
2018-07-16T15:56:14.998Z,23.72
2018-07-16T15:58:44.070Z,25.68
2018-07-16T16:01:13.142Z,24.23
2018-07-16T16:03:42.234Z,24.45
2018-07-16T16:06:11.571Z,24.86
2018-07-16T16:08:40.318Z,25.03
2018-07-16T16:11:09.715Z,25.16
2018-07-16T16:13:38.427Z,25.81
2018-07-16T16:16:07.845Z,27.25
2018-07-16T16:18:37.546Z,27.79
2018-07-16T16:21:06.666Z,27.71
2018-07-16T16:23:35.710Z,29.97
2018-07-16T16:26:05.094Z,28.13
2018-07-16T16:28:34.383Z,26.99
2018-07-16T16:31:03.685Z,27.47
2018-07-16T16:33:32.750Z,29.87
2018-07-16T16:36:01.506Z,32.32
2018-07-16T16:38:30.611Z,32.19
2018-07-16T16:40:59.869Z,33.54
2018-07-16T16:43:28.606Z,32.08
2018-07-16T16:45:57.670Z,31.86
2018-07-16T16:48:26.914Z,33.03
2018-07-16T16:50:56.906Z,31.28
2018-07-16T16:53:25.965Z,31.02
2018-07-16T16:55:54.767Z,32.03
2018-07-16T16:58:24.129Z,31.26
2018-07-16T17:00:53.366Z,30.80
2018-07-16T17:03:22.154Z,30.01
2018-07-16T17:05:51.299Z,31.02
2018-07-16T17:08:20.369Z,30.06
2018-07-16T17:10:49.817Z,29.15
2018-07-16T17:13:19.678Z,29.38
2018-07-16T17:15:49.102Z,31.03
2018-07-16T17:18:18.185Z,31.86
2018-07-16T17:20:47.238Z,30.76
2018-07-16T17:23:16.841Z,30.71
2018-07-16T17:25:46.619Z,31.83
2018-07-16T17:28:15.690Z,34.88
2018-07-16T17:30:44.783Z,35.31
2018-07-16T17:33:13.882Z,35.78
2018-07-16T17:35:42.958Z,36.33
2018-07-16T17:38:12.119Z,37.48
2018-07-16T17:40:42.149Z,37.06
2018-07-16T17:43:11.473Z,38.10
2018-07-16T17:45:41.261Z,39.34
2018-07-16T17:48:11.130Z,40.72
2018-07-16T17:50:41.017Z,40.71
2018-07-16T17:53:11.816Z,41.08
2018-07-16T17:55:41.294Z,41.70
2018-07-16T17:58:10.103Z,42.51
2018-07-16T18:00:39.167Z,43.20
2018-07-16T18:03:08.694Z,42.60
2018-07-16T18:05:37.851Z,42.60
2018-07-16T18:08:07.251Z,41.40
2018-07-16T18:10:36.362Z,40.97
2018-07-16T18:13:07.952Z,40.15
2018-07-16T18:15:36.997Z,40.51
2018-07-16T18:18:06.633Z,41.16
2018-07-16T18:20:37.987Z,40.60
2018-07-16T18:23:07.643Z,40.62
2018-07-16T18:25:37.447Z,41.60
2018-07-16T18:28:06.802Z,41.17
2018-07-16T18:30:36.832Z,40.90
2018-07-16T18:33:06.202Z,41.41
2018-07-16T18:35:35.927Z,41.29
2018-07-16T18:38:05.206Z,41.17
2018-07-16T18:40:34.858Z,41.65
2018-07-16T18:43:03.992Z,43.27
2018-07-16T18:45:33.282Z,42.68
2018-07-16T18:48:02.970Z,43.84
2018-07-16T18:50:31.516Z,43.45
2018-07-16T18:53:00.546Z,44.87
2018-07-16T18:55:29.919Z,45.83
2018-07-16T18:58:00.431Z,46.40
2018-07-16T19:00:29.744Z,47.50
2018-07-16T19:02:59.095Z,47.62
2018-07-16T19:05:29.069Z,49.48
2018-07-16T19:07:58.362Z,48.98
2018-07-16T19:10:27.690Z,50.69
2018-07-16T19:12:57.215Z,51.46
2018-07-16T19:15:28.651Z,53.52
2018-07-16T19:17:58.964Z,52.90
2018-07-16T19:20:28.312Z,54.30
2018-07-16T19:22:59.150Z,54.19
2018-07-16T19:25:28.230Z,54.45
2018-07-16T19:27:57.310Z,55.29
2018-07-16T19:30:26.441Z,57.04
2018-07-16T19:32:55.544Z,57.37
2018-07-16T19:35:25.147Z,57.81
2018-07-16T19:37:54.818Z,58.57
2018-07-16T19:40:23.944Z,58.82
2018-07-16T19:42:53.115Z,58.95
2018-07-16T19:45:22.642Z,59.25
2018-07-16T19:47:51.754Z,61.00
2018-07-16T19:50:21.166Z,60.90
2018-07-16T19:52:50.814Z,61.48
2018-07-16T19:55:20.755Z,61.36
2018-07-16T19:57:50.019Z,62.50
2018-07-16T20:00:18.966Z,62.41
2018-07-16T20:02:48.182Z,63.22
2018-07-16T20:05:17.305Z,63.56
2018-07-16T20:07:46.462Z,64.58
2018-07-16T20:10:15.553Z,64.30
2018-07-16T20:12:44.685Z,64.66
2018-07-16T20:15:19.219Z,65.23
2018-07-16T20:17:48.442Z,65.26
2018-07-16T20:20:17.791Z,65.49
2018-07-16T20:22:48.001Z,66.45
2018-07-16T20:25:17.098Z,67.84
2018-07-16T20:27:46.198Z,67.98
2018-07-16T20:30:15.402Z,68.67
2018-07-16T20:32:44.550Z,69.64
2018-07-16T20:35:14.398Z,70.08
2018-07-16T20:37:43.514Z,69.99
2018-07-16T20:40:12.670Z,70.78
2018-07-16T20:42:41.754Z,71.17
2018-07-16T20:45:10.830Z,71.10
2018-07-16T20:47:39.930Z,71.67
2018-07-16T20:50:09.911Z,72.19
2018-07-16T20:52:39.796Z,71.47
2018-07-16T20:55:08.862Z,72.43
2018-07-16T20:57:37.974Z,73.58
2018-07-16T21:00:07.039Z,73.26
2018-07-16T21:02:37.035Z,73.52
2018-07-16T21:05:06.957Z,73.73
2018-07-16T21:07:36.218Z,74.48
2018-07-16T21:10:05.718Z,75.03
2018-07-16T21:12:34.870Z,75.97
2018-07-16T21:15:04.050Z,75.59
2018-07-16T21:17:33.179Z,76.17
2018-07-16T21:20:02.260Z,76.26
2018-07-16T21:22:33.171Z,76.92
2018-07-16T21:25:02.259Z,76.72
2018-07-16T21:27:31.342Z,76.25
2018-07-16T21:30:00.477Z,76.25
2018-07-16T21:32:29.527Z,75.90
2018-07-16T21:34:58.380Z,76.63
2018-07-16T21:37:27.522Z,77.52
2018-07-16T21:39:56.599Z,77.47
2018-07-16T21:42:25.703Z,78.19
2018-07-16T21:44:56.162Z,78.11
2018-07-16T21:47:25.310Z,77.99
2018-07-16T21:49:54.403Z,78.79
2018-07-16T21:52:23.490Z,78.36
2018-07-16T21:54:52.706Z,78.59
2018-07-16T21:57:21.354Z,79.33
2018-07-16T21:59:50.430Z,79.19
2018-07-16T22:02:20.243Z,78.95
2018-07-16T22:04:49.559Z,79.04
2018-07-16T22:07:18.642Z,80.32
2018-07-16T22:09:47.826Z,81.12
2018-07-16T22:12:16.947Z,81.07
2018-07-16T22:14:46.477Z,79.98
2018-07-16T22:17:15.561Z,80.27
2018-07-16T22:19:44.686Z,80.66
2018-07-16T22:22:13.799Z,80.38
2018-07-16T22:24:42.894Z,81.05
2018-07-16T22:27:11.952Z,81.29
2018-07-16T22:29:41.013Z,81.73
2018-07-16T22:32:10.122Z,82.12
2018-07-16T22:34:40.050Z,82.72
2018-07-16T22:37:09.122Z,83.48
2018-07-16T22:39:38.359Z,83.48
2018-07-16T22:42:07.886Z,83.35
2018-07-16T22:44:37.215Z,85.12
2018-07-16T22:47:06.294Z,85.41
2018-07-16T22:49:35.439Z,85.76
2018-07-16T22:52:04.502Z,86.27
2018-07-16T22:54:33.732Z,86.08
2018-07-16T22:57:02.457Z,86.23
2018-07-16T22:59:31.774Z,86.59
2018-07-16T23:02:00.723Z,87.11
2018-07-16T23:04:29.997Z,88.19
2018-07-16T23:06:59.533Z,88.39
2018-07-16T23:09:29.169Z,88.24
2018-07-16T23:11:58.824Z,88.19
2018-07-16T23:14:29.104Z,88.56
2018-07-16T23:16:58.932Z,87.75
2018-07-16T23:19:28.851Z,88.92
2018-07-16T23:21:58.727Z,89.33
2018-07-16T23:24:28.063Z,89.13
2018-07-16T23:26:57.401Z,89.87
2018-07-16T23:29:26.474Z,91.00
2018-07-16T23:31:55.830Z,91.15
2018-07-16T23:34:24.882Z,91.35
2018-07-16T23:36:54.007Z,91.97
2018-07-16T23:39:23.095Z,93.00
2018-07-16T23:41:52.166Z,93.12
2018-07-16T23:44:21.271Z,93.67
2018-07-16T23:46:50.574Z,93.27
2018-07-16T23:49:19.634Z,93.45
2018-07-16T23:51:48.738Z,92.93
2018-07-16T23:54:17.838Z,93.11
2018-07-16T23:56:46.942Z,92.49
2018-07-16T23:59:16.027Z,94.12
